createdAt,value
2017-06-20T00:01:30.998Z,10.60
2017-06-20T00:03:59.721Z,10.13
2017-06-20T00:06:28.972Z,9.80
2017-06-20T00:08:57.501Z,10.00
2017-06-20T00:11:27.007Z,9.20
2017-06-20T00:13:56.301Z,9.83
2017-06-20T00:16:25.532Z,9.63
2017-06-20T00:18:54.025Z,10.27
2017-06-20T00:21:23.191Z,10.13
2017-06-20T00:23:52.441Z,10.60
2017-06-20T00:26:20.930Z,11.30
2017-06-20T00:28:49.455Z,11.37
2017-06-20T00:31:18.720Z,10.07
2017-06-20T00:33:47.214Z,10.70
2017-06-20T00:36:15.755Z,11.17
2017-06-20T00:38:44.598Z,10.00
2017-06-20T00:41:13.893Z,10.47
2017-06-20T00:43:42.666Z,11.60
2017-06-20T00:46:11.470Z,10.57
2017-06-20T00:48:40.766Z,11.47
2017-06-20T00:51:09.296Z,11.23
2017-06-20T00:53:37.805Z,10.43
2017-06-20T00:56:06.392Z,10.50
2017-06-20T00:58:34.898Z,10.63
2017-06-20T01:01:03.591Z,11.67
2017-06-20T01:03:32.237Z,11.20
2017-06-20T01:06:02.362Z,11.37
2017-06-20T01:08:30.900Z,10.57
2017-06-20T01:11:00.162Z,10.90
2017-06-20T01:13:28.662Z,12.07
2017-06-20T01:15:57.162Z,11.27
2017-06-20T01:18:26.393Z,11.07
2017-06-20T01:20:54.876Z,11.87
2017-06-20T01:23:23.355Z,11.90
2017-06-20T01:25:52.536Z,11.60
2017-06-20T01:28:21.773Z,13.33
2017-06-20T01:30:50.451Z,13.73
2017-06-20T01:33:19.209Z,15.20
2017-06-20T01:35:47.725Z,13.97
2017-06-20T01:38:16.186Z,14.43
2017-06-20T01:40:44.725Z,14.50
2017-06-20T01:43:13.314Z,15.23
2017-06-20T01:45:41.971Z,15.20
2017-06-20T01:48:10.710Z,15.63
2017-06-20T01:50:41.433Z,14.67
2017-06-20T01:53:10.105Z,15.20
2017-06-20T01:55:38.688Z,15.17
2017-06-20T01:58:07.234Z,17.50
2017-06-20T02:00:35.935Z,14.83
2017-06-20T02:03:04.473Z,16.60
2017-06-20T02:05:33.906Z,15.00
2017-06-20T02:08:02.458Z,15.53
2017-06-20T02:10:32.946Z,14.63
2017-06-20T02:13:01.470Z,14.17
2017-06-20T02:15:30.010Z,11.73
2017-06-20T02:17:58.806Z,12.60
2017-06-20T02:20:27.416Z,14.40
2017-06-20T02:22:55.907Z,13.40
2017-06-20T02:25:24.703Z,13.30
2017-06-20T02:27:53.965Z,12.70
2017-06-20T02:30:23.009Z,12.50
2017-06-20T02:32:51.538Z,14.47
2017-06-20T02:35:20.022Z,15.20
2017-06-20T02:37:48.530Z,15.90
2017-06-20T02:40:17.027Z,16.23
2017-06-20T02:42:46.286Z,16.43
2017-06-20T02:45:15.008Z,16.30
2017-06-20T02:47:44.559Z,16.77
2017-06-20T02:50:13.210Z,16.67
2017-06-20T02:52:43.142Z,16.03
2017-06-20T02:55:11.623Z,16.30
2017-06-20T02:57:40.296Z,18.27
2017-06-20T03:00:09.534Z,18.17
2017-06-20T03:02:38.037Z,17.80
2017-06-20T03:05:06.525Z,18.90
2017-06-20T03:07:35.025Z,17.80
2017-06-20T03:10:03.522Z,16.17
2017-06-20T03:12:33.231Z,17.47
2017-06-20T03:15:02.522Z,15.30
2017-06-20T03:17:31.208Z,16.10
2017-06-20T03:19:59.711Z,17.30
2017-06-20T03:22:29.202Z,17.10
2017-06-20T03:24:58.490Z,17.23
2017-06-20T03:27:27.414Z,15.77
2017-06-20T03:29:56.093Z,17.67
2017-06-20T03:32:25.310Z,17.60
2017-06-20T03:34:53.801Z,16.83
2017-06-20T03:37:22.279Z,15.83
2017-06-20T03:39:51.006Z,17.80
2017-06-20T03:42:19.498Z,17.83
2017-06-20T03:44:48.062Z,17.23
2017-06-20T03:47:16.678Z,15.67
2017-06-20T03:49:45.383Z,15.57
2017-06-20T03:52:15.237Z,15.73
2017-06-20T03:54:43.764Z,16.50
2017-06-20T03:57:12.278Z,14.47
2017-06-20T03:59:40.906Z,16.20
2017-06-20T04:02:09.620Z,17.03
2017-06-20T04:04:38.173Z,16.57
2017-06-20T04:07:07.150Z,18.20
2017-06-20T04:09:35.663Z,18.00
2017-06-20T04:12:04.386Z,15.77
2017-06-20T04:14:33.620Z,15.37
2017-06-20T04:17:02.090Z,15.73
2017-06-20T04:19:30.854Z,16.83
2017-06-20T04:22:00.109Z,14.30
2017-06-20T04:24:28.549Z,14.37
2017-06-20T04:26:57.713Z,13.27
2017-06-20T04:29:26.422Z,14.00
2017-06-20T04:31:55.807Z,13.57
2017-06-20T04:34:24.410Z,14.37
2017-06-20T04:36:53.693Z,14.03
2017-06-20T04:39:22.166Z,14.23
2017-06-20T04:41:50.661Z,14.30
2017-06-20T04:44:19.151Z,14.40
2017-06-20T04:46:48.391Z,12.77
2017-06-20T04:49:16.978Z,12.37
2017-06-20T04:51:46.017Z,12.50
2017-06-20T04:54:14.557Z,13.87
2017-06-20T04:56:43.054Z,11.20
2017-06-20T04:59:11.666Z,10.93
2017-06-20T05:01:40.152Z,10.37
2017-06-20T05:04:08.642Z,10.13
2017-06-20T05:06:37.932Z,9.30
2017-06-20T05:09:06.600Z,9.20
2017-06-20T05:11:35.665Z,9.03
2017-06-20T05:14:04.206Z,11.87
2017-06-20T05:16:33.231Z,9.90
2017-06-20T05:38:47.333Z,10.05
2017-06-20T05:41:15.893Z,8.30
2017-06-20T05:43:44.394Z,9.50
2017-06-20T05:46:13.413Z,10.53
2017-06-20T05:48:41.958Z,9.57
2017-06-20T05:51:10.449Z,9.20
2017-06-20T05:53:38.942Z,9.33
2017-06-20T05:56:07.582Z,10.80
2017-06-20T05:58:36.861Z,10.60
2017-06-20T06:01:05.411Z,13.00
2017-06-20T06:03:34.046Z,13.40
2017-06-20T06:06:02.754Z,11.47
2017-06-20T06:08:31.984Z,11.70
2017-06-20T06:11:00.926Z,12.00
2017-06-20T06:13:29.592Z,12.10
2017-06-20T06:15:58.117Z,11.73
2017-06-20T06:18:27.515Z,10.80
2017-06-20T06:20:56.309Z,8.90
2017-06-20T06:23:25.766Z,8.90
2017-06-20T06:25:54.275Z,8.90
2017-06-20T06:28:23.563Z,7.00
2017-06-20T06:30:52.285Z,7.37
2017-06-20T06:33:22.133Z,7.90
2017-06-20T06:35:50.638Z,6.87
2017-06-20T06:38:19.165Z,6.13
2017-06-20T06:40:48.443Z,5.97
2017-06-20T06:43:17.156Z,4.93
2017-06-20T06:45:45.790Z,5.20
2017-06-20T06:48:14.514Z,5.13
2017-06-20T06:50:44.603Z,4.20
2017-06-20T06:53:13.540Z,4.23
2017-06-20T06:55:43.072Z,4.47
2017-06-20T06:58:11.940Z,4.33
2017-06-20T07:00:41.239Z,3.73
2017-06-20T07:03:10.494Z,4.30
2017-06-20T07:05:39.432Z,3.67
2017-06-20T07:08:09.705Z,3.37
2017-06-20T07:10:39.019Z,2.43
2017-06-20T07:13:08.001Z,2.97
2017-06-20T07:15:36.550Z,3.00
2017-06-20T07:18:05.074Z,3.50
2017-06-20T07:20:33.539Z,3.13
2017-06-20T07:23:02.141Z,2.90
2017-06-20T07:25:30.654Z,2.90
2017-06-20T07:27:59.972Z,2.93
2017-06-20T07:30:29.254Z,2.80
2017-06-20T07:37:54.264Z,4.23
2017-06-20T07:45:18.676Z,3.17
2017-06-20T08:44:43.607Z,5.10
2017-06-20T08:47:13.085Z,5.17
2017-06-20T08:49:41.796Z,4.15
2017-06-20T08:52:10.503Z,4.77
2017-06-20T08:54:39.786Z,6.53
2017-06-20T08:57:08.434Z,4.07
2017-06-20T10:06:22.989Z,3.13
2017-06-20T10:08:52.110Z,4.20
2017-06-20T10:11:20.999Z,2.90
2017-06-20T10:13:50.537Z,4.20
2017-06-20T10:31:08.009Z,4.50
2017-06-20T10:33:36.997Z,4.70
2017-06-20T10:36:05.506Z,3.90
2017-06-20T10:38:34.047Z,3.70
2017-06-20T10:41:02.543Z,4.10
2017-06-20T10:43:31.214Z,3.63
2017-06-20T10:45:59.775Z,2.73
2017-06-20T10:48:28.262Z,3.10
2017-06-20T10:50:56.779Z,3.27
2017-06-20T10:53:25.369Z,3.77
2017-06-20T10:55:53.866Z,4.00
2017-06-20T10:58:25.671Z,4.27
2017-06-20T11:00:54.155Z,4.17
2017-06-20T11:03:22.734Z,4.40
2017-06-20T11:05:51.283Z,3.90
2017-06-20T11:08:20.789Z,3.90
2017-06-20T11:10:50.098Z,4.10
2017-06-20T11:13:18.752Z,3.60
2017-06-20T11:15:48.635Z,3.37
2017-06-20T11:18:17.736Z,3.73
2017-06-20T11:20:47.365Z,2.33
2017-06-20T11:35:37.182Z,3.00
2017-06-20T11:38:05.849Z,3.00
2017-06-20T11:40:35.073Z,3.10
2017-06-20T13:22:25.909Z,1.30
2017-06-20T13:24:55.807Z,0.77
2017-06-20T13:27:27.145Z,1.00
2017-06-20T13:29:58.796Z,1.30
2017-06-20T13:32:28.286Z,1.20
2017-06-20T13:34:57.630Z,0.90
2017-06-20T13:37:28.167Z,1.23
2017-06-20T13:39:57.887Z,1.20
2017-06-20T13:42:27.998Z,1.33
2017-06-20T13:44:57.227Z,1.20
2017-06-20T13:47:25.911Z,0.93
2017-06-20T13:49:55.415Z,0.90
2017-06-20T13:52:24.854Z,0.90
2017-06-20T13:54:53.518Z,0.90
2017-06-20T13:57:22.529Z,1.23
2017-06-20T13:59:51.287Z,1.20
2017-06-20T14:02:19.880Z,1.10
2017-06-20T14:04:49.589Z,1.03
2017-06-20T14:07:18.919Z,1.13
2017-06-20T14:09:47.982Z,1.20
2017-06-20T14:12:16.650Z,1.10
2017-06-20T14:14:45.303Z,1.20
2017-06-20T14:17:13.858Z,1.20
2017-06-20T14:19:42.646Z,1.20
2017-06-20T14:22:11.421Z,1.13
2017-06-20T14:24:40.704Z,1.23
2017-06-20T14:27:09.405Z,1.40
2017-06-20T14:29:39.327Z,1.40
2017-06-20T14:32:07.861Z,1.97
2017-06-20T14:34:36.375Z,1.00
2017-06-20T14:37:04.902Z,0.90
2017-06-20T14:39:34.476Z,0.90
2017-06-20T14:42:03.939Z,1.20
2017-06-20T14:44:32.455Z,1.00
2017-06-20T14:47:01.102Z,0.90
2017-06-20T14:49:29.718Z,0.70
2017-06-20T14:51:58.747Z,1.07
2017-06-20T14:54:29.750Z,0.93
2017-06-20T14:56:58.665Z,0.77
2017-06-20T14:59:27.251Z,0.90
2017-06-20T15:01:56.711Z,0.87
2017-06-20T15:04:25.601Z,0.80
2017-06-20T15:06:54.179Z,0.70
2017-06-20T15:09:22.849Z,0.90
2017-06-20T15:11:51.764Z,0.90
2017-06-20T15:14:20.546Z,1.00
2017-06-20T15:16:49.741Z,1.30
2017-06-20T15:19:18.380Z,1.10
2017-06-20T15:21:47.826Z,1.40
2017-06-20T15:24:16.327Z,1.17
2017-06-20T15:26:45.058Z,1.30
2017-06-20T15:29:14.414Z,0.90
2017-06-20T15:31:42.979Z,1.27
2017-06-20T15:34:11.887Z,0.90
2017-06-20T15:36:42.034Z,1.77
2017-06-20T15:39:10.990Z,0.93
2017-06-20T15:41:40.190Z,1.00
2017-06-20T15:44:08.941Z,1.20
2017-06-20T15:46:38.211Z,1.30
2017-06-20T15:49:14.565Z,1.13
2017-06-20T15:51:43.129Z,0.87
2017-06-20T15:54:11.714Z,0.80
2017-06-20T15:56:40.298Z,1.13
2017-06-20T15:59:08.864Z,1.20
2017-06-20T16:01:37.505Z,0.80
2017-06-20T16:04:06.022Z,0.97
2017-06-20T16:06:34.932Z,1.30
2017-06-20T16:09:03.721Z,1.23
2017-06-20T16:11:32.359Z,1.73
2017-06-20T16:14:00.994Z,1.37
2017-06-20T16:16:29.738Z,1.60
2017-06-20T16:18:58.380Z,0.97
2017-06-20T16:21:26.921Z,1.43
2017-06-20T16:23:58.832Z,1.37
2017-06-20T16:26:27.962Z,1.33
2017-06-20T16:28:59.794Z,1.00
2017-06-20T16:31:28.413Z,1.37
2017-06-20T16:33:58.171Z,1.40
2017-06-20T16:36:27.854Z,1.27
2017-06-20T16:38:57.213Z,1.20
2017-06-20T16:41:26.252Z,1.43
2017-06-20T16:43:55.754Z,1.50
2017-06-20T16:46:25.225Z,1.50
2017-06-20T16:48:53.948Z,1.20
2017-06-20T16:51:23.231Z,1.93
2017-06-20T16:53:52.141Z,1.60
2017-06-20T16:56:21.670Z,1.70
2017-06-20T16:58:50.566Z,1.70
2017-06-20T17:01:19.227Z,1.17
2017-06-20T17:03:48.016Z,1.30
2017-06-20T17:06:17.254Z,2.10
2017-06-20T17:08:46.329Z,1.47
2017-06-20T17:11:14.853Z,1.13
2017-06-20T17:13:43.409Z,1.83
2017-06-20T17:16:12.577Z,2.07
2017-06-20T17:18:42.085Z,1.63
2017-06-20T17:21:11.366Z,1.27
2017-06-20T17:23:39.870Z,1.70
2017-06-20T17:26:09.166Z,1.53
2017-06-20T17:28:38.445Z,1.57
2017-06-20T17:31:07.139Z,1.50
2017-06-20T17:33:36.083Z,1.50
2017-06-20T17:36:04.767Z,1.63
2017-06-20T17:38:33.338Z,1.60
2017-06-20T17:41:01.910Z,1.40
2017-06-20T17:43:30.573Z,1.63
2017-06-20T17:45:59.239Z,1.70
2017-06-20T17:51:01.318Z,1.10
2017-06-20T17:53:30.215Z,1.20
2017-06-20T18:05:52.261Z,1.30
2017-06-20T18:10:52.027Z,1.70
2017-06-20T18:13:20.725Z,1.10
2017-06-20T18:15:49.335Z,1.37
2017-06-20T18:18:18.170Z,1.30
2017-06-20T18:20:47.048Z,1.20
2017-06-20T18:23:15.681Z,1.23
2017-06-20T18:25:44.179Z,1.10
2017-06-20T18:28:12.750Z,1.27
2017-06-20T18:38:06.213Z,1.30
2017-06-20T18:40:35.723Z,1.43
2017-06-20T18:43:05.163Z,1.27
2017-06-20T18:45:33.709Z,1.07
2017-06-20T18:48:03.267Z,1.23
2017-06-20T18:50:31.798Z,1.30
2017-06-20T18:53:00.339Z,1.30
2017-06-20T18:55:29.075Z,1.40
2017-06-20T18:57:58.358Z,1.87
2017-06-20T19:00:27.062Z,1.50
2017-06-20T19:02:56.804Z,2.10
2017-06-20T19:05:25.462Z,1.97
2017-06-20T19:07:54.147Z,1.40
2017-06-20T19:10:23.447Z,1.60
2017-06-20T19:12:52.938Z,1.83
2017-06-20T19:15:21.641Z,1.70
2017-06-20T19:17:50.306Z,1.77
2017-06-20T19:20:19.777Z,1.80
2017-06-20T19:22:48.520Z,1.43
2017-06-20T19:25:18.413Z,1.30
2017-06-20T19:27:47.107Z,1.47
2017-06-20T19:30:15.734Z,2.00
2017-06-20T19:32:44.497Z,1.40
2017-06-20T19:35:13.185Z,1.70
2017-06-20T19:37:42.667Z,1.73
2017-06-20T19:40:11.211Z,2.03
2017-06-20T19:42:39.813Z,2.33
2017-06-20T19:45:08.839Z,2.20
2017-06-20T19:47:37.391Z,2.03
2017-06-20T19:50:05.994Z,3.00
2017-06-20T19:52:34.782Z,1.90
2017-06-20T19:55:03.524Z,1.73
2017-06-20T19:57:32.249Z,1.87
2017-06-20T20:00:00.810Z,1.80
2017-06-20T20:02:29.340Z,1.47
2017-06-20T20:04:58.466Z,3.93
2017-06-20T20:07:27.411Z,1.83
2017-06-20T20:09:55.991Z,1.37
2017-06-20T20:12:24.506Z,2.60
2017-06-20T20:14:53.925Z,1.80
2017-06-20T20:17:22.452Z,1.30
2017-06-20T20:19:51.172Z,1.37
2017-06-20T20:22:20.291Z,1.87
2017-06-20T20:24:49.596Z,1.70
2017-06-20T20:27:18.339Z,1.83
2017-06-20T20:29:46.868Z,1.93
2017-06-20T20:32:16.143Z,1.97
2017-06-20T20:34:44.905Z,1.83
2017-06-20T20:37:13.801Z,1.87
2017-06-20T20:39:42.387Z,1.60
2017-06-20T20:42:11.071Z,1.57
2017-06-20T20:44:39.645Z,1.87
2017-06-20T20:47:08.190Z,2.30
2017-06-20T20:49:36.870Z,1.80
2017-06-20T20:52:05.440Z,1.67
2017-06-20T20:54:34.249Z,2.10
2017-06-20T20:57:03.382Z,3.00
2017-06-20T20:59:31.906Z,2.10
2017-06-20T21:02:00.851Z,2.70
2017-06-20T21:04:29.454Z,3.73
2017-06-20T21:06:58.276Z,2.90
2017-06-20T21:09:28.704Z,2.50
2017-06-20T21:11:57.289Z,3.90
2017-06-20T21:14:26.131Z,2.40
2017-06-20T21:16:54.683Z,3.00
2017-06-20T21:19:23.974Z,2.60
2017-06-20T21:21:53.218Z,2.70
2017-06-20T21:24:21.758Z,2.83
2017-06-20T21:26:50.308Z,3.00
2017-06-20T21:29:18.887Z,2.50
2017-06-20T21:31:47.507Z,2.77
2017-06-20T21:34:16.205Z,2.03
2017-06-20T21:36:44.898Z,2.93
2017-06-20T21:39:13.390Z,2.37
2017-06-20T21:41:42.354Z,1.87
2017-06-20T21:44:10.911Z,2.37
2017-06-20T21:46:39.578Z,2.70
2017-06-20T21:49:08.146Z,2.17
2017-06-20T21:51:36.848Z,2.17
2017-06-20T21:54:05.501Z,3.10
2017-06-20T21:56:34.953Z,2.70
2017-06-20T21:59:03.606Z,2.17
2017-06-20T22:01:32.369Z,2.93
2017-06-20T22:04:00.935Z,2.90
2017-06-20T22:06:29.851Z,2.50
2017-06-20T22:08:59.658Z,2.20
2017-06-20T22:11:28.173Z,2.20
2017-06-20T22:13:56.750Z,2.43
2017-06-20T22:16:25.562Z,2.23
2017-06-20T22:18:54.168Z,1.70
2017-06-20T22:21:22.778Z,3.63
2017-06-20T22:23:51.459Z,1.73
2017-06-20T22:26:20.380Z,2.07
2017-06-20T22:28:49.491Z,1.63
2017-06-20T22:31:18.167Z,2.10
2017-06-20T22:33:47.605Z,2.40
2017-06-20T22:36:16.522Z,2.23
2017-06-20T22:38:45.299Z,2.00
2017-06-20T22:41:13.937Z,1.93
2017-06-20T22:43:43.282Z,2.30
2017-06-20T22:46:11.928Z,1.77
2017-06-20T22:48:41.437Z,2.00
2017-06-20T22:51:10.126Z,1.57
2017-06-20T22:53:38.651Z,2.00
2017-06-20T22:56:07.165Z,2.47
2017-06-20T22:58:35.693Z,2.20
2017-06-20T23:01:04.210Z,2.60
2017-06-20T23:03:32.975Z,1.97
2017-06-20T23:06:01.482Z,2.07
2017-06-20T23:08:30.286Z,2.00
2017-06-20T23:10:58.789Z,1.90
2017-06-20T23:13:28.022Z,2.23
2017-06-20T23:15:56.637Z,2.50
2017-06-20T23:18:25.189Z,2.20
2017-06-20T23:20:53.719Z,2.00
2017-06-20T23:23:22.407Z,2.30
2017-06-20T23:25:51.491Z,2.40
2017-06-20T23:28:20.210Z,2.30
2017-06-20T23:30:49.470Z,2.67
2017-06-20T23:33:18.044Z,2.87
2017-06-20T23:35:46.909Z,2.60
2017-06-20T23:38:15.591Z,2.27
2017-06-20T23:40:44.274Z,2.27
2017-06-20T23:43:13.734Z,2.47
2017-06-20T23:45:42.602Z,2.70
2017-06-20T23:48:11.156Z,2.07
2017-06-20T23:50:40.505Z,2.20
2017-06-20T23:53:08.971Z,2.60
2017-06-20T23:55:37.570Z,2.60
2017-06-20T23:58:06.103Z,1.90
